createdAt,value
2023-03-10T00:00:50.197Z,70.40
2023-03-10T00:03:17.328Z,71.17
2023-03-10T00:05:45.271Z,71.28
2023-03-10T00:08:12.209Z,71.11
2023-03-10T00:10:39.534Z,70.60
2023-03-10T00:13:06.436Z,70.80
2023-03-10T00:15:33.729Z,71.17
2023-03-10T00:18:00.697Z,71.36
2023-03-10T00:20:28.403Z,71.40
2023-03-10T00:22:55.354Z,71.28
2023-03-10T00:25:22.367Z,72.24
2023-03-10T00:27:55.003Z,73.10
2023-03-10T00:30:22.882Z,73.09
2023-03-10T00:32:51.085Z,73.50
2023-03-10T00:35:18.448Z,73.13
2023-03-10T00:37:46.788Z,72.65
2023-03-10T00:40:15.851Z,72.48
2023-03-10T00:42:45.025Z,72.07
2023-03-10T00:45:13.163Z,71.91
2023-03-10T00:47:40.114Z,72.09
2023-03-10T00:50:11.280Z,71.48
2023-03-10T00:52:38.468Z,70.21
2023-03-10T00:55:05.818Z,70.84
2023-03-10T00:57:33.082Z,70.94
2023-03-10T01:00:00.036Z,71.68
2023-03-10T01:02:28.566Z,71.02
2023-03-10T01:04:58.195Z,73.17
2023-03-10T01:07:25.380Z,72.56
2023-03-10T01:09:53.398Z,72.43
2023-03-10T01:12:20.371Z,71.19
2023-03-10T01:14:47.442Z,71.30
2023-03-10T01:17:16.351Z,71.45
2023-03-10T01:19:45.706Z,73.20
2023-03-10T01:22:12.645Z,73.09
2023-03-10T01:24:39.846Z,73.03
2023-03-10T01:27:06.974Z,72.69
2023-03-10T01:29:33.976Z,72.70
2023-03-10T01:32:00.998Z,72.41
2023-03-10T01:34:30.371Z,72.31
2023-03-10T01:36:57.487Z,72.51
2023-03-10T01:39:24.797Z,72.65
2023-03-10T01:41:51.874Z,72.58
2023-03-10T01:44:21.966Z,72.65
2023-03-10T01:46:56.960Z,71.36
2023-03-10T01:49:45.294Z,71.37
2023-03-10T01:52:18.035Z,72.02
2023-03-10T01:55:01.290Z,71.12
2023-03-10T01:57:39.872Z,71.29
2023-03-10T02:00:12.422Z,71.80
2023-03-10T02:03:10.546Z,72.26
2023-03-10T02:05:43.181Z,72.73
2023-03-10T02:08:11.444Z,71.71
2023-03-10T02:10:39.015Z,72.41
2023-03-10T02:13:06.899Z,71.86
2023-03-10T02:15:37.325Z,71.82
2023-03-10T02:18:07.030Z,72.87
2023-03-10T02:20:56.829Z,74.73
2023-03-10T02:23:42.979Z,77.15
2023-03-10T02:26:18.153Z,77.90
2023-03-10T02:28:47.473Z,78.57
2023-03-10T02:31:16.569Z,78.83
2023-03-10T02:33:46.989Z,78.85
2023-03-10T02:36:23.284Z,78.88
2023-03-10T02:38:51.800Z,78.39
2023-03-10T02:41:30.480Z,77.83
2023-03-10T02:44:01.176Z,77.88
2023-03-10T02:46:30.501Z,78.10
2023-03-10T02:49:03.445Z,78.24
2023-03-10T02:51:45.985Z,77.86
2023-03-10T02:54:16.478Z,76.93
2023-03-10T02:56:45.583Z,76.47
2023-03-10T02:59:15.019Z,76.87
2023-03-10T03:01:46.767Z,76.70
2023-03-10T03:04:14.415Z,76.06
2023-03-10T03:06:44.821Z,75.99
2023-03-10T03:09:12.109Z,75.77
2023-03-10T03:11:40.246Z,75.13
2023-03-10T03:14:09.348Z,74.74
2023-03-10T03:16:37.811Z,74.01
2023-03-10T03:19:07.946Z,74.65
2023-03-10T03:21:35.382Z,75.19
2023-03-10T03:24:02.506Z,76.70
2023-03-10T03:26:29.811Z,77.27
2023-03-10T03:29:06.858Z,77.25
2023-03-10T03:31:36.181Z,77.30
2023-03-10T03:34:09.384Z,76.71
2023-03-10T03:36:37.577Z,76.17
2023-03-10T03:39:07.237Z,77.03
2023-03-10T03:41:35.831Z,77.30
2023-03-10T03:44:03.605Z,77.20
2023-03-10T03:46:32.607Z,76.85
2023-03-10T03:49:00.709Z,76.36
2023-03-10T03:51:29.571Z,75.86
2023-03-10T03:53:57.269Z,75.67
2023-03-10T03:56:26.430Z,74.92
2023-03-10T03:58:53.958Z,75.32
2023-03-10T04:01:21.146Z,75.06
2023-03-10T04:03:53.021Z,75.24
2023-03-10T04:06:20.626Z,75.40
2023-03-10T04:08:50.785Z,76.06
2023-03-10T04:11:18.899Z,76.30
2023-03-10T04:13:48.613Z,77.03
2023-03-10T04:16:16.114Z,77.73
2023-03-10T04:18:45.206Z,77.02
2023-03-10T04:21:16.304Z,76.98
2023-03-10T04:23:44.119Z,77.11
2023-03-10T04:26:14.726Z,77.73
2023-03-10T04:28:42.342Z,78.86
2023-03-10T04:31:16.275Z,78.70
2023-03-10T04:33:45.291Z,77.95
2023-03-10T04:36:13.403Z,77.46
2023-03-10T04:38:41.299Z,77.46
2023-03-10T04:41:09.727Z,76.92
2023-03-10T04:43:43.251Z,75.51
2023-03-10T04:46:12.904Z,75.92
2023-03-10T04:48:41.341Z,75.67
2023-03-10T04:51:12.174Z,75.95
2023-03-10T04:53:46.311Z,75.43
2023-03-10T04:56:14.441Z,75.79
2023-03-10T04:58:42.260Z,76.37
2023-03-10T05:01:14.257Z,76.62
2023-03-10T05:03:46.586Z,78.05
2023-03-10T05:06:23.470Z,78.23
2023-03-10T05:09:06.248Z,78.94
2023-03-10T05:11:36.472Z,80.04
2023-03-10T05:14:03.937Z,79.88
2023-03-10T05:16:32.464Z,79.65
2023-03-10T05:18:59.733Z,79.08
2023-03-10T05:21:29.357Z,77.81
2023-03-10T05:23:58.458Z,77.44
2023-03-10T05:26:26.652Z,77.13
2023-03-10T05:28:54.933Z,77.38
2023-03-10T05:31:30.258Z,77.31
2023-03-10T05:34:05.672Z,76.85
2023-03-10T05:36:33.362Z,76.70
2023-03-10T05:39:02.686Z,77.48
2023-03-10T05:41:29.901Z,77.16
2023-03-10T05:43:58.911Z,77.73
2023-03-10T05:46:26.524Z,76.99
2023-03-10T05:48:57.620Z,77.82
2023-03-10T05:51:25.522Z,77.60
2023-03-10T05:53:53.037Z,78.16
2023-03-10T05:56:26.191Z,78.24
2023-03-10T05:58:57.779Z,78.27
2023-03-10T06:01:30.806Z,78.37
2023-03-10T06:03:57.963Z,78.46
2023-03-10T06:06:25.624Z,78.70
2023-03-10T06:08:52.507Z,77.96
2023-03-10T06:11:19.641Z,78.06
2023-03-10T06:13:46.705Z,77.35
2023-03-10T06:16:14.170Z,77.76
2023-03-10T06:18:41.604Z,77.35
2023-03-10T06:21:12.167Z,77.42
2023-03-10T06:23:39.938Z,77.57
2023-03-10T06:26:14.401Z,77.75
2023-03-10T06:28:42.921Z,78.15
2023-03-10T06:31:15.566Z,76.94
2023-03-10T06:33:43.322Z,76.41
2023-03-10T06:36:12.919Z,75.90
2023-03-10T06:38:41.043Z,75.22
2023-03-10T06:41:09.218Z,74.32
2023-03-10T06:43:37.425Z,73.67
2023-03-10T06:46:07.109Z,73.27
2023-03-10T06:48:35.035Z,71.94
2023-03-10T06:51:02.028Z,70.45
2023-03-10T06:53:29.714Z,70.08
2023-03-10T06:56:04.671Z,69.26
2023-03-10T06:58:34.084Z,67.15
2023-03-10T07:01:02.113Z,67.49
2023-03-10T07:03:29.395Z,66.15
2023-03-10T07:06:01.133Z,65.62
2023-03-10T07:08:31.693Z,64.34
2023-03-10T07:11:00.867Z,63.54
2023-03-10T07:13:32.355Z,63.31
2023-03-10T07:16:01.366Z,63.06
2023-03-10T07:18:29.874Z,62.46
2023-03-10T07:20:57.239Z,62.33
2023-03-10T07:23:25.453Z,62.27
2023-03-10T07:26:02.413Z,62.45
2023-03-10T07:28:33.537Z,61.59
2023-03-10T07:31:10.367Z,60.73
2023-03-10T07:33:39.097Z,60.46
2023-03-10T07:39:14.240Z,59.59
2023-03-10T07:41:41.468Z,59.67
2023-03-10T07:44:09.789Z,58.89
2023-03-10T07:46:37.433Z,60.19
2023-03-10T07:49:07.558Z,61.16
2023-03-10T07:51:38.260Z,60.54
2023-03-10T07:54:05.719Z,60.29
2023-03-10T07:56:42.010Z,61.74
2023-03-10T07:59:12.612Z,61.84
2023-03-10T08:01:45.223Z,60.55
2023-03-10T08:04:13.079Z,62.13
2023-03-10T08:06:41.518Z,61.92
2023-03-10T08:09:09.128Z,62.36
2023-03-10T08:11:39.524Z,61.89
2023-03-10T08:14:08.155Z,60.92
2023-03-10T08:16:35.662Z,60.75
2023-03-10T08:19:03.110Z,60.71
2023-03-10T08:21:30.425Z,60.63
2023-03-10T08:23:57.629Z,60.91
2023-03-10T08:26:28.329Z,60.31
2023-03-10T08:28:55.773Z,61.24
2023-03-10T08:31:23.300Z,61.19
2023-03-10T08:33:55.803Z,60.54
2023-03-10T08:36:25.654Z,60.38
2023-03-10T08:38:56.585Z,60.58
2023-03-10T08:41:31.237Z,61.13
2023-03-10T08:43:59.180Z,60.36
2023-03-10T08:46:28.330Z,59.81
2023-03-10T08:48:56.406Z,59.68
2023-03-10T08:51:27.164Z,59.83
2023-03-10T08:53:55.038Z,60.11
2023-03-10T08:56:23.283Z,60.19
2023-03-10T08:58:54.599Z,59.68
2023-03-10T09:01:22.009Z,60.42
2023-03-10T09:03:49.336Z,59.94
2023-03-10T09:06:22.116Z,59.70
2023-03-10T09:08:53.925Z,59.33
2023-03-10T09:11:26.662Z,59.63
2023-03-10T09:13:54.458Z,60.13
2023-03-10T09:16:22.509Z,60.47
2023-03-10T09:18:51.148Z,60.93
2023-03-10T09:21:19.706Z,60.96
2023-03-10T09:23:53.007Z,60.72
2023-03-10T09:26:21.783Z,60.29
2023-03-10T09:28:51.156Z,60.56
2023-03-10T09:31:37.239Z,62.29
2023-03-10T09:34:04.384Z,62.05
2023-03-10T09:36:32.123Z,61.50
2023-03-10T09:38:59.990Z,61.30
2023-03-10T09:42:09.609Z,60.12
2023-03-10T09:45:02.367Z,59.09
2023-03-10T09:47:56.586Z,59.70
2023-03-10T09:50:54.610Z,58.98
2023-03-10T09:53:43.388Z,57.96
2023-03-10T09:56:20.358Z,57.89
2023-03-10T09:58:57.948Z,56.75
2023-03-10T10:01:31.231Z,57.33
2023-03-10T10:04:10.012Z,57.43
2023-03-10T10:06:43.497Z,56.39
2023-03-10T10:09:40.376Z,56.70
2023-03-10T10:12:24.241Z,56.73
2023-03-10T10:14:59.203Z,56.95
2023-03-10T10:17:33.824Z,56.85
2023-03-10T10:20:07.189Z,57.81
2023-03-10T10:22:38.191Z,57.05
2023-03-10T10:25:26.589Z,55.85
2023-03-10T10:27:57.008Z,56.94
2023-03-10T10:30:39.015Z,56.36
2023-03-10T10:33:13.756Z,55.84
2023-03-10T10:36:02.573Z,56.81
2023-03-10T10:38:34.823Z,55.43
2023-03-10T10:41:07.473Z,55.16
2023-03-10T10:43:45.118Z,54.71
2023-03-10T10:46:17.975Z,52.90
2023-03-10T10:48:48.701Z,51.92
2023-03-10T10:51:29.507Z,50.95
2023-03-10T10:54:04.082Z,50.24
2023-03-10T10:56:32.497Z,50.04
2023-03-10T10:59:22.950Z,50.43
2023-03-10T11:01:54.736Z,49.72
2023-03-10T11:04:25.908Z,49.56
2023-03-10T11:07:07.966Z,48.68
2023-03-10T11:09:36.353Z,48.32
2023-03-10T11:12:15.004Z,48.22
2023-03-10T11:15:37.436Z,49.14
2023-03-10T11:18:05.452Z,49.72
2023-03-10T11:20:51.718Z,49.26
2023-03-10T11:23:31.460Z,49.19
2023-03-10T11:26:06.137Z,48.37
2023-03-10T11:28:55.325Z,49.73
2023-03-10T11:31:51.334Z,50.76
2023-03-10T11:34:19.550Z,51.38
2023-03-10T11:37:01.478Z,51.56
2023-03-10T11:39:53.700Z,51.95
2023-03-10T11:42:52.493Z,52.00
2023-03-10T11:45:35.381Z,52.67
2023-03-10T11:48:37.660Z,52.40
2023-03-10T11:51:07.319Z,52.74
2023-03-10T11:53:47.155Z,52.70
2023-03-10T11:56:19.232Z,53.01
2023-03-10T11:59:17.508Z,51.71
2023-03-10T12:01:44.827Z,52.44
2023-03-10T12:04:23.267Z,53.35
2023-03-10T12:07:27.588Z,53.53
2023-03-10T12:10:19.447Z,54.27
2023-03-10T12:12:49.025Z,54.36
2023-03-10T12:15:41.495Z,54.53
2023-03-10T12:18:09.887Z,55.45
2023-03-10T12:20:39.202Z,57.13
2023-03-10T12:23:22.849Z,57.28
2023-03-10T12:25:53.042Z,57.21
2023-03-10T12:28:25.301Z,57.29
2023-03-10T12:31:01.645Z,57.13
2023-03-10T12:33:32.035Z,57.69
2023-03-10T12:36:10.586Z,57.61
2023-03-10T12:39:01.414Z,58.95
2023-03-10T12:41:28.731Z,59.01
2023-03-10T12:44:00.683Z,59.28
2023-03-10T12:46:42.901Z,59.33
2023-03-10T12:49:39.192Z,59.41
2023-03-10T12:52:29.675Z,59.67
2023-03-10T12:55:24.618Z,59.94
2023-03-10T12:58:03.698Z,60.14
2023-03-10T13:00:41.137Z,59.97
2023-03-10T13:03:46.205Z,59.95
2023-03-10T13:06:21.162Z,59.98
2023-03-10T13:08:55.393Z,60.60
2023-03-10T13:11:49.455Z,60.93
2023-03-10T13:14:53.854Z,60.55
2023-03-10T13:17:39.506Z,60.77
2023-03-10T13:20:14.465Z,60.10
2023-03-10T13:22:52.463Z,60.06
2023-03-10T13:25:20.982Z,59.89
2023-03-10T13:27:50.027Z,60.35
2023-03-10T13:30:21.745Z,60.45
2023-03-10T13:32:58.636Z,60.60
2023-03-10T13:35:37.919Z,61.12
2023-03-10T13:38:19.434Z,60.92
2023-03-10T13:41:00.394Z,60.66
2023-03-10T13:43:36.465Z,60.67
2023-03-10T13:46:09.928Z,61.48
2023-03-10T13:48:41.164Z,61.72
2023-03-10T13:51:26.799Z,62.08
2023-03-10T13:53:58.299Z,62.09
2023-03-10T13:56:37.011Z,62.38
2023-03-10T13:59:06.954Z,62.44
2023-03-10T14:01:39.750Z,62.41
2023-03-10T14:04:09.053Z,62.93
2023-03-10T14:06:36.969Z,63.51
2023-03-10T14:09:21.211Z,64.33
2023-03-10T14:11:50.623Z,64.07
2023-03-10T14:14:28.148Z,64.89
2023-03-10T14:16:57.579Z,64.78
2023-03-10T14:19:43.970Z,64.97
2023-03-10T14:22:24.884Z,65.01
2023-03-10T14:24:54.789Z,65.08
2023-03-10T14:27:22.578Z,65.10
2023-03-10T14:29:52.698Z,65.34
2023-03-10T14:32:21.087Z,65.35
2023-03-10T14:34:49.088Z,65.16
2023-03-10T14:37:19.904Z,65.96
2023-03-10T14:39:47.364Z,65.89
2023-03-10T14:42:24.867Z,66.00
2023-03-10T14:44:53.393Z,65.70
2023-03-10T14:47:20.685Z,65.75
2023-03-10T14:49:47.803Z,65.88
2023-03-10T14:52:17.892Z,65.96
2023-03-10T14:54:45.012Z,66.27
2023-03-10T14:57:15.615Z,66.15
2023-03-10T14:59:42.856Z,66.36
2023-03-10T15:02:22.630Z,65.85
2023-03-10T15:04:49.586Z,66.09
2023-03-10T15:07:18.369Z,65.69
2023-03-10T15:09:48.508Z,66.00
2023-03-10T15:12:20.318Z,66.40
2023-03-10T15:15:01.390Z,66.20
2023-03-10T15:17:30.489Z,66.51
2023-03-10T15:19:57.671Z,66.59
2023-03-10T15:22:31.933Z,66.59
2023-03-10T15:25:00.003Z,66.83
2023-03-10T15:27:27.058Z,66.68
2023-03-10T15:29:55.314Z,67.62
2023-03-10T15:32:24.745Z,68.13
2023-03-10T15:34:52.142Z,67.58
2023-03-10T15:37:19.393Z,68.17
2023-03-10T15:39:47.707Z,67.47
2023-03-10T15:42:15.631Z,68.11
2023-03-10T15:44:42.727Z,69.38
2023-03-10T15:47:10.143Z,70.35
2023-03-10T15:49:38.868Z,70.92
2023-03-10T15:52:06.160Z,71.43
2023-03-10T15:54:34.375Z,72.29
2023-03-10T15:57:02.486Z,72.82
2023-03-10T15:59:30.203Z,72.67
2023-03-10T16:01:57.402Z,72.25
2023-03-10T16:04:24.370Z,72.65
2023-03-10T16:06:51.656Z,73.09
2023-03-10T16:09:19.196Z,72.60
2023-03-10T16:11:46.436Z,72.96
2023-03-10T16:14:16.764Z,73.17
2023-03-10T16:16:44.508Z,72.43
2023-03-10T16:19:11.560Z,71.66
2023-03-10T16:21:39.445Z,71.46
2023-03-10T16:24:07.367Z,71.11
2023-03-10T16:26:35.690Z,71.48
2023-03-10T16:29:04.804Z,71.57
2023-03-10T16:31:32.325Z,71.63
2023-03-10T16:33:59.496Z,71.94
2023-03-10T16:36:28.603Z,71.91
2023-03-10T16:38:57.209Z,71.47
2023-03-10T16:41:24.774Z,71.49
2023-03-10T16:43:52.310Z,70.89
2023-03-10T16:46:25.540Z,70.27
2023-03-10T16:48:54.831Z,70.51
2023-03-10T16:51:30.748Z,69.73
2023-03-10T16:54:00.916Z,69.72
2023-03-10T16:56:29.595Z,69.61
2023-03-10T16:58:57.877Z,70.05
2023-03-10T17:01:25.675Z,69.89
2023-03-10T17:03:54.217Z,69.52
2023-03-10T17:06:30.926Z,69.49
2023-03-10T17:09:13.600Z,69.77
2023-03-10T17:11:45.300Z,70.24
2023-03-10T17:14:15.394Z,70.09
2023-03-10T17:16:51.491Z,70.34
2023-03-10T17:19:24.578Z,70.21
2023-03-10T17:21:52.494Z,70.37
2023-03-10T17:24:20.690Z,70.30
2023-03-10T17:26:48.301Z,69.45
2023-03-10T17:29:15.710Z,69.88
2023-03-10T17:31:44.402Z,69.98
2023-03-10T17:34:13.755Z,69.84
2023-03-10T17:36:41.175Z,70.36
2023-03-10T17:39:08.231Z,70.02
2023-03-10T17:41:36.394Z,70.07
2023-03-10T17:44:07.794Z,70.08
2023-03-10T17:46:35.413Z,70.14
2023-03-10T17:49:03.479Z,70.16
2023-03-10T17:51:31.203Z,70.43
2023-03-10T17:54:01.416Z,70.33
2023-03-10T17:56:29.459Z,70.38
2023-03-10T17:58:58.181Z,70.78
2023-03-10T18:01:28.271Z,70.52
2023-03-10T18:03:56.423Z,71.34
2023-03-10T18:06:30.065Z,70.57
2023-03-10T18:09:02.582Z,71.39
2023-03-10T18:11:33.499Z,71.12
2023-03-10T18:14:03.780Z,71.01
2023-03-10T18:16:37.623Z,71.32
2023-03-10T18:19:08.802Z,71.03
2023-03-10T18:21:41.174Z,70.95
2023-03-10T18:24:13.630Z,71.17
2023-03-10T18:26:46.551Z,70.99
2023-03-10T18:29:14.675Z,70.80
2023-03-10T18:31:41.589Z,70.52
2023-03-10T18:34:10.414Z,69.93
2023-03-10T18:36:37.584Z,70.30
2023-03-10T18:39:09.737Z,70.55
2023-03-10T18:41:38.579Z,70.75
2023-03-10T18:47:18.662Z,70.46
2023-03-10T18:49:47.084Z,70.56
2023-03-10T18:53:00.180Z,70.77
2023-03-10T18:55:27.307Z,71.06
2023-03-10T18:57:57.078Z,70.94
2023-03-10T19:00:24.878Z,70.95
2023-03-10T19:02:56.209Z,71.50
2023-03-10T19:05:23.350Z,71.50
2023-03-10T19:07:50.780Z,71.02
2023-03-10T19:10:19.420Z,71.34
2023-03-10T19:12:48.718Z,70.80
2023-03-10T19:15:18.012Z,70.95
2023-03-10T19:17:48.099Z,70.68
2023-03-10T19:20:17.816Z,71.43
2023-03-10T19:22:55.604Z,71.73
2023-03-10T19:25:24.393Z,72.79
2023-03-10T19:27:55.592Z,72.71
2023-03-10T19:30:22.930Z,72.81
2023-03-10T19:32:53.734Z,72.86
2023-03-10T19:35:21.017Z,72.57
2023-03-10T19:37:48.164Z,72.26
2023-03-10T19:40:17.898Z,72.22
2023-03-10T19:42:46.161Z,72.28
2023-03-10T19:45:15.938Z,72.32
2023-03-10T19:47:52.747Z,72.70
2023-03-10T19:50:20.223Z,73.43
2023-03-10T19:52:51.681Z,74.28
2023-03-10T19:55:23.897Z,74.10
2023-03-10T19:57:53.922Z,74.39
2023-03-10T20:00:27.843Z,74.40
2023-03-10T20:03:00.746Z,74.27
2023-03-10T20:05:27.983Z,74.56
2023-03-10T20:07:55.151Z,74.57
2023-03-10T20:10:25.156Z,74.84
2023-03-10T20:12:52.670Z,74.89
2023-03-10T20:15:20.001Z,74.75
2023-03-10T20:17:48.678Z,74.81
2023-03-10T20:20:26.189Z,75.06
2023-03-10T20:22:53.660Z,75.45
2023-03-10T20:25:22.552Z,75.72
2023-03-10T20:27:52.792Z,75.55
2023-03-10T20:30:30.916Z,75.63
2023-03-10T20:33:00.079Z,75.23
2023-03-10T20:35:34.217Z,76.24
2023-03-10T20:38:02.308Z,76.64
2023-03-10T20:40:29.626Z,76.15
2023-03-10T20:42:59.707Z,76.64
2023-03-10T20:45:31.531Z,77.16
2023-03-10T20:47:59.190Z,76.58
2023-03-10T20:50:29.754Z,76.78
2023-03-10T20:52:57.845Z,76.88
2023-03-10T20:55:37.602Z,76.18
2023-03-10T20:58:04.770Z,76.07
2023-03-10T21:00:32.011Z,76.47
2023-03-10T21:02:59.660Z,77.08
2023-03-10T21:05:28.104Z,76.92
2023-03-10T21:07:55.321Z,77.45
2023-03-10T21:10:22.913Z,77.33
2023-03-10T21:12:53.428Z,77.96
2023-03-10T21:15:20.624Z,77.14
2023-03-10T21:17:48.436Z,77.53
2023-03-10T21:20:18.027Z,77.14
2023-03-10T21:22:45.750Z,77.26
2023-03-10T21:25:20.421Z,77.35
2023-03-10T21:27:49.746Z,78.44
2023-03-10T21:30:19.170Z,78.43
2023-03-10T21:32:46.861Z,77.95
2023-03-10T21:35:14.316Z,77.68
2023-03-10T21:37:42.544Z,77.59
2023-03-10T21:40:10.505Z,77.90
2023-03-10T21:42:37.537Z,76.92
2023-03-10T21:45:05.343Z,76.16
2023-03-10T21:47:32.290Z,76.04
2023-03-10T21:49:59.622Z,77.49
2023-03-10T21:52:27.574Z,77.15
2023-03-10T21:54:54.644Z,78.47
2023-03-10T21:57:21.708Z,79.60
2023-03-10T21:59:48.667Z,78.76
2023-03-10T22:02:28.479Z,78.16
2023-03-10T22:04:56.981Z,78.56
2023-03-10T22:07:24.040Z,77.67
2023-03-10T22:09:51.241Z,78.25
2023-03-10T22:12:18.729Z,79.67
2023-03-10T22:14:46.782Z,81.23
2023-03-10T22:17:13.698Z,81.38
2023-03-10T22:19:40.989Z,82.62
2023-03-10T22:22:08.058Z,81.18
2023-03-10T22:24:35.107Z,81.11
2023-03-10T22:27:01.979Z,80.96
2023-03-10T22:29:29.119Z,81.46
2023-03-10T22:31:58.074Z,81.25
2023-03-10T22:34:28.399Z,80.98
2023-03-10T22:36:55.443Z,80.70
2023-03-10T22:39:23.706Z,80.36
2023-03-10T22:41:50.998Z,80.52
2023-03-10T22:44:17.993Z,80.73
2023-03-10T22:46:46.994Z,80.17
2023-03-10T22:49:14.767Z,79.83
2023-03-10T22:51:42.287Z,79.90
2023-03-10T22:54:09.273Z,80.49
2023-03-10T22:56:37.661Z,81.54
2023-03-10T22:59:06.015Z,82.84
2023-03-10T23:01:33.153Z,82.78
2023-03-10T23:04:00.199Z,82.60
2023-03-10T23:06:29.210Z,82.65
2023-03-10T23:08:57.029Z,83.15
2023-03-10T23:11:24.483Z,83.47
2023-03-10T23:13:51.681Z,84.17
2023-03-10T23:16:20.245Z,84.39
2023-03-10T23:18:47.592Z,84.98
2023-03-10T23:21:14.768Z,85.54
2023-03-10T23:23:43.900Z,85.36
2023-03-10T23:26:11.960Z,85.90
2023-03-10T23:28:39.320Z,85.56
2023-03-10T23:31:07.781Z,86.20
2023-03-10T23:33:35.463Z,85.34
2023-03-10T23:36:04.885Z,85.85
2023-03-10T23:38:37.854Z,86.24
2023-03-10T23:41:11.942Z,87.03
2023-03-10T23:43:57.309Z,86.71
2023-03-10T23:46:27.612Z,86.84
2023-03-10T23:48:54.540Z,86.01
2023-03-10T23:51:21.601Z,85.71
2023-03-10T23:53:49.014Z,86.49
2023-03-10T23:56:16.323Z,85.87
2023-03-10T23:58:45.436Z,86.16
